createdAt,value
2022-08-10T00:00:56.366Z,95205.03
2022-08-10T00:03:23.764Z,95207.06
2022-08-10T00:05:53.237Z,95204.78
2022-08-10T00:08:24.110Z,95213.59
2022-08-10T00:10:56.469Z,95204.00
2022-08-10T00:13:25.437Z,95206.75
2022-08-10T00:15:54.983Z,95207.03
2022-08-10T00:18:35.297Z,95195.66
2022-08-10T00:21:07.726Z,95208.72
2022-08-10T00:23:36.030Z,95206.75
2022-08-10T00:26:03.532Z,95206.03
2022-08-10T00:28:30.543Z,95197.50
2022-08-10T00:30:57.633Z,95190.84
2022-08-10T00:33:24.859Z,95193.41
2022-08-10T00:35:51.637Z,95188.41
2022-08-10T00:38:18.368Z,95199.56
2022-08-10T00:40:46.147Z,95201.19
2022-08-10T00:43:13.048Z,95213.66
2022-08-10T00:45:40.048Z,95214.31
2022-08-10T00:48:07.122Z,95213.44
2022-08-10T00:50:34.453Z,95206.31
2022-08-10T00:53:01.888Z,95203.53
2022-08-10T00:55:28.927Z,95190.28
2022-08-10T00:57:56.649Z,95190.28
2022-08-10T01:00:24.634Z,95189.41
2022-08-10T01:02:51.901Z,95189.91
2022-08-10T01:05:20.475Z,95192.13
2022-08-10T01:08:05.945Z,95203.28
2022-08-10T01:10:41.916Z,95202.81
2022-08-10T01:13:11.447Z,95207.44
2022-08-10T01:15:47.847Z,95203.00
2022-08-10T01:18:20.388Z,95205.09
2022-08-10T01:21:04.797Z,95203.44
2022-08-10T01:23:56.565Z,95194.22
2022-08-10T01:27:04.617Z,95201.38
2022-08-10T01:29:37.254Z,95211.66
2022-08-10T01:32:07.126Z,95203.66
2022-08-10T01:34:51.740Z,95198.81
2022-08-10T01:37:24.728Z,95199.13
2022-08-10T01:39:56.694Z,95200.00
2022-08-10T01:42:25.085Z,95193.47
2022-08-10T01:45:02.269Z,95184.22
2022-08-10T01:47:53.100Z,95187.13
2022-08-10T01:50:30.069Z,95197.06
2022-08-10T01:55:52.040Z,95190.81
2022-08-10T01:58:20.933Z,95190.25
2022-08-10T02:00:50.793Z,95196.88
2022-08-10T02:03:19.393Z,95184.06
2022-08-10T02:05:49.660Z,95192.28
2022-08-10T02:08:19.332Z,95196.16
2022-08-10T02:10:47.949Z,95177.78
2022-08-10T02:13:18.975Z,95187.66
2022-08-10T02:16:01.083Z,95190.09
2022-08-10T02:18:31.096Z,95191.41
2022-08-10T02:21:02.273Z,95180.34
2022-08-10T02:23:32.076Z,95189.53
2022-08-10T02:26:00.815Z,95190.38
2022-08-10T02:28:31.246Z,95190.13
2022-08-10T02:31:06.152Z,95195.34
2022-08-10T02:33:36.885Z,95202.91
2022-08-10T02:36:10.108Z,95193.50
2022-08-10T02:38:59.494Z,95207.69
2022-08-10T02:45:12.728Z,95194.41
2022-08-10T02:45:20.984Z,95199.25
2022-08-10T02:47:51.749Z,95201.06
2022-08-10T02:50:40.014Z,95198.50
2022-08-10T02:53:54.899Z,95180.97
2022-08-10T02:56:10.131Z,95189.75
2022-08-10T02:59:00.941Z,95196.00
2022-08-10T03:01:34.110Z,95203.84
2022-08-10T03:04:11.887Z,95205.00
2022-08-10T03:06:44.072Z,95197.63
2022-08-10T03:09:15.189Z,95205.19
2022-08-10T03:12:35.530Z,95202.06
2022-08-10T03:14:31.858Z,95197.81
2022-08-10T03:16:59.836Z,95196.47
2022-08-10T03:20:35.158Z,95200.59
2022-08-10T03:22:18.008Z,95197.38
2022-08-10T03:24:45.836Z,95210.22
2022-08-10T03:27:14.687Z,95210.38
2022-08-10T03:30:23.360Z,95221.22
2022-08-10T03:32:30.718Z,95220.78
2022-08-10T03:34:59.821Z,95224.22
2022-08-10T03:37:27.628Z,95212.44
2022-08-10T03:39:55.370Z,95214.81
2022-08-10T03:42:26.522Z,95223.81
2022-08-10T03:44:54.725Z,95229.00
2022-08-10T03:47:24.549Z,95233.19
2022-08-10T03:49:52.373Z,95231.25
2022-08-10T03:52:20.004Z,95233.28
2022-08-10T03:54:47.295Z,95232.38
2022-08-10T03:57:14.904Z,95237.78
2022-08-10T03:59:41.905Z,95234.38
2022-08-10T04:02:44.422Z,95234.81
2022-08-10T04:04:56.491Z,95232.56
2022-08-10T04:07:23.784Z,95243.69
2022-08-10T04:09:54.903Z,95242.56
2022-08-10T04:12:23.851Z,95246.63
2022-08-10T04:14:52.974Z,95237.44
2022-08-10T04:17:59.328Z,95238.28
2022-08-10T04:20:38.486Z,95236.63
2022-08-10T04:23:13.863Z,95247.81
2022-08-10T04:25:41.269Z,95243.84
2022-08-10T04:28:09.049Z,95241.69
2022-08-10T04:30:36.977Z,95252.31
2022-08-10T04:33:06.783Z,95240.72
2022-08-10T04:35:35.047Z,95241.16
2022-08-10T04:38:03.441Z,95243.84
2022-08-10T04:40:31.828Z,95249.31
2022-08-10T04:43:11.735Z,95248.09
2022-08-10T04:45:48.536Z,95247.56
2022-08-10T04:48:40.414Z,95248.53
2022-08-10T04:51:17.552Z,95248.53
2022-08-10T04:54:05.634Z,95245.09
2022-08-10T04:56:38.151Z,95236.72
2022-08-10T04:59:07.178Z,95244.69
2022-08-10T05:02:09.885Z,95235.34
2022-08-10T05:04:35.922Z,95243.63
2022-08-10T05:07:10.773Z,95248.34
2022-08-10T05:10:03.908Z,95238.47
2022-08-10T05:12:26.463Z,95239.41
2022-08-10T05:14:53.909Z,95237.84
2022-08-10T05:17:22.685Z,95246.63
2022-08-10T05:20:03.883Z,95245.31
2022-08-10T05:22:38.360Z,95240.53
2022-08-10T05:25:09.728Z,95240.19
2022-08-10T05:27:37.158Z,95234.34
2022-08-10T05:30:05.847Z,95241.69
2022-08-10T05:32:56.080Z,95246.19
2022-08-10T05:35:21.311Z,95251.31
2022-08-10T05:38:13.196Z,95253.56
2022-08-10T05:40:39.590Z,95248.34
2022-08-10T05:43:06.966Z,95248.88
2022-08-10T05:45:33.975Z,95250.59
2022-08-10T05:48:41.956Z,95253.13
2022-08-10T05:51:09.239Z,95251.47
2022-08-10T05:54:01.309Z,95244.97
2022-08-10T05:56:26.207Z,95243.69
2022-08-10T05:58:53.299Z,95242.28
2022-08-10T06:01:26.235Z,95244.63
2022-08-10T06:03:59.417Z,95253.13
2022-08-10T06:06:30.178Z,95248.53
2022-08-10T06:08:59.107Z,95245.25
2022-08-10T06:12:28.162Z,95238.81
2022-08-10T06:14:36.585Z,95248.75
2022-08-10T06:17:04.188Z,95246.78
2022-08-10T06:19:31.709Z,95245.06
2022-08-10T06:22:01.395Z,95245.91
2022-08-10T06:24:33.592Z,95242.72
2022-08-10T06:27:00.352Z,95236.19
2022-08-10T06:29:30.876Z,95239.47
2022-08-10T06:31:59.591Z,95240.00
2022-08-10T06:34:31.999Z,95253.06
2022-08-10T06:37:02.460Z,95254.41
2022-08-10T06:39:33.961Z,95256.75
2022-08-10T06:42:15.831Z,95257.16
2022-08-10T06:44:54.476Z,95255.13
2022-08-10T06:47:26.614Z,95255.03
2022-08-10T06:49:59.867Z,95260.72
2022-08-10T06:52:30.885Z,95264.53
2022-08-10T06:55:00.691Z,95250.81
2022-08-10T06:57:31.087Z,95249.53
2022-08-10T07:00:01.247Z,95249.47
2022-08-10T07:02:44.300Z,95236.91
2022-08-10T07:05:17.032Z,95258.41
2022-08-10T07:07:45.898Z,95262.28
2022-08-10T07:10:16.507Z,95260.50
2022-08-10T07:12:44.570Z,95247.63
2022-08-10T07:15:13.044Z,95246.69
2022-08-10T07:17:41.927Z,95246.09
2022-08-10T07:20:10.638Z,95227.34
2022-08-10T07:23:27.114Z,95241.59
2022-08-10T07:25:28.460Z,95243.50
2022-08-10T07:28:00.419Z,95240.09
2022-08-10T07:30:37.054Z,95244.66
2022-08-10T07:33:05.728Z,95243.78
2022-08-10T07:35:42.814Z,95246.72
2022-08-10T07:38:19.806Z,95238.22
2022-08-10T07:40:48.685Z,95236.78
2022-08-10T07:43:18.772Z,95235.84
2022-08-10T07:45:47.210Z,95243.28
2022-08-10T07:48:27.679Z,95237.22
2022-08-10T07:50:59.334Z,95235.53
2022-08-10T07:53:33.821Z,95232.72
2022-08-10T07:56:13.295Z,95225.03
2022-08-10T07:58:54.200Z,95224.31
2022-08-10T08:01:27.842Z,95216.53
2022-08-10T08:04:10.641Z,95216.22
2022-08-10T08:06:41.572Z,95231.47
2022-08-10T08:09:10.744Z,95218.59
2022-08-10T08:11:41.124Z,95222.19
2022-08-10T08:14:09.115Z,95223.69
2022-08-10T08:16:38.555Z,95226.00
2022-08-10T08:24:06.835Z,95210.88
2022-08-10T08:24:43.337Z,95206.06
2022-08-10T08:27:15.218Z,95210.41
2022-08-10T08:29:44.764Z,95213.16
2022-08-10T08:32:13.679Z,95204.81
2022-08-10T08:34:43.722Z,95203.78
2022-08-10T08:37:12.112Z,95191.84
2022-08-10T08:39:47.353Z,95193.34
2022-08-10T08:42:52.294Z,95196.38
2022-08-10T08:46:01.015Z,95195.75
2022-08-10T08:48:58.152Z,95201.56
2022-08-10T08:52:08.183Z,95201.66
2022-08-10T08:54:42.120Z,95194.78
2022-08-10T08:57:46.305Z,95196.06
2022-08-10T09:00:14.522Z,95192.72
2022-08-10T09:02:41.322Z,95198.09
2022-08-10T09:05:26.957Z,95195.09
2022-08-10T09:08:18.005Z,95187.03
2022-08-10T09:11:02.985Z,95182.19
2022-08-10T09:13:41.275Z,95182.75
2022-08-10T09:16:26.107Z,95195.97
2022-08-10T09:19:36.551Z,95182.03
2022-08-10T09:22:18.042Z,95189.00
2022-08-10T09:25:00.399Z,95176.63
2022-08-10T09:27:35.411Z,95181.25
2022-08-10T09:30:07.041Z,95179.69
2022-08-10T09:36:25.386Z,95178.91
2022-08-10T09:36:27.607Z,95176.22
2022-08-10T09:38:58.547Z,95168.84
2022-08-10T09:41:39.206Z,95177.25
2022-08-10T09:44:20.332Z,95178.53
2022-08-10T09:47:14.996Z,95176.19
2022-08-10T09:50:06.959Z,95178.16
2022-08-10T09:53:06.351Z,95164.97
2022-08-10T09:56:19.106Z,95167.22
2022-08-10T09:58:46.688Z,95175.00
2022-08-10T10:02:03.307Z,95167.81
2022-08-10T10:04:58.754Z,95166.47
2022-08-10T10:07:29.609Z,95167.25
2022-08-10T10:10:10.773Z,95165.59
2022-08-10T10:12:55.196Z,95156.00
2022-08-10T10:15:37.908Z,95153.63
2022-08-10T10:18:07.699Z,95152.38
2022-08-10T10:21:11.524Z,95151.53
2022-08-10T10:24:20.171Z,95154.00
2022-08-10T10:27:00.184Z,95148.88
2022-08-10T10:29:58.299Z,95153.56
2022-08-10T10:32:57.676Z,95146.97
2022-08-10T10:35:36.587Z,95151.47
2022-08-10T10:38:08.875Z,95154.72
2022-08-10T10:40:45.565Z,95153.94
2022-08-10T10:43:33.872Z,95158.53
2022-08-10T10:46:29.763Z,95141.44
2022-08-10T10:49:22.847Z,95139.00
2022-08-10T10:52:02.962Z,95139.00
2022-08-10T10:54:41.681Z,95147.72
2022-08-10T10:57:58.516Z,95136.81
2022-08-10T11:00:37.052Z,95136.94
2022-08-10T11:03:23.715Z,95131.53
2022-08-10T11:06:09.674Z,95137.78
2022-08-10T11:08:44.390Z,95128.09
2022-08-10T11:12:00.031Z,95138.81
2022-08-10T11:14:29.185Z,95134.69
2022-08-10T11:17:14.656Z,95120.38
2022-08-10T11:20:01.820Z,95139.34
2022-08-10T11:22:42.456Z,95144.00
2022-08-10T11:25:44.802Z,95141.31
2022-08-10T11:29:01.651Z,95140.94
2022-08-10T11:31:57.683Z,95147.19
2022-08-10T11:35:11.584Z,95123.13
2022-08-10T11:38:31.331Z,95137.84
2022-08-10T11:40:49.352Z,95129.31
2022-08-10T11:43:27.310Z,95114.19
2022-08-10T11:46:34.672Z,95120.72
2022-08-10T11:49:07.299Z,95124.25
2022-08-10T11:51:56.899Z,95116.47
2022-08-10T11:54:31.303Z,95112.94
2022-08-10T11:57:02.551Z,95110.66
2022-08-10T11:59:58.407Z,95116.13
2022-08-10T12:02:40.906Z,95109.91
2022-08-10T12:05:18.216Z,95122.75
2022-08-10T12:10:01.605Z,95131.66
2022-08-10T12:10:42.705Z,95134.38
2022-08-10T12:13:22.317Z,95101.44
2022-08-10T12:15:49.096Z,95137.81
2022-08-10T12:18:21.971Z,95134.72
2022-08-10T12:20:53.757Z,95136.28
2022-08-10T12:23:31.133Z,95143.63
2022-08-10T12:26:29.562Z,95123.91
2022-08-10T12:29:08.860Z,95123.13
2022-08-10T12:31:43.192Z,95127.38
2022-08-10T12:34:20.398Z,95117.69
2022-08-10T12:37:11.004Z,95106.06
2022-08-10T12:39:52.246Z,95111.06
2022-08-10T12:43:02.593Z,95110.66
2022-08-10T12:46:04.335Z,95107.13
2022-08-10T12:48:42.257Z,95104.47
2022-08-10T12:51:20.605Z,95104.03
2022-08-10T12:53:51.896Z,95090.94
2022-08-10T12:56:27.611Z,95097.94
2022-08-10T12:58:57.038Z,95096.00
2022-08-10T13:02:07.928Z,95106.06
2022-08-10T13:04:31.485Z,95097.09
2022-08-10T13:07:04.056Z,95104.13
2022-08-10T13:09:32.652Z,95102.97
2022-08-10T13:12:36.343Z,95099.06
2022-08-10T13:14:59.829Z,95096.78
2022-08-10T13:17:39.273Z,95094.84
2022-08-10T13:20:30.030Z,95092.13
2022-08-10T13:23:01.432Z,95091.75
2022-08-10T13:25:40.575Z,95098.72
2022-08-10T13:28:37.278Z,95098.72
2022-08-10T13:31:03.556Z,95090.47
2022-08-10T13:34:35.853Z,95091.66
2022-08-10T13:36:29.398Z,95099.88
2022-08-10T13:38:58.334Z,95097.53
2022-08-10T13:41:35.211Z,95095.22
2022-08-10T13:44:02.193Z,95081.25
2022-08-10T13:46:29.799Z,95100.56
2022-08-10T13:49:00.058Z,95107.47
2022-08-10T13:51:57.051Z,95109.13
2022-08-10T13:54:20.541Z,95117.28
2022-08-10T13:56:50.049Z,95125.84
2022-08-10T13:59:18.520Z,95123.50
2022-08-10T14:01:50.345Z,95126.22
2022-08-10T14:04:18.883Z,95122.34
2022-08-10T14:06:56.080Z,95128.41
2022-08-10T14:09:30.116Z,95134.34
2022-08-10T14:11:58.910Z,95139.09
2022-08-10T14:14:28.145Z,95135.81
2022-08-10T14:16:57.286Z,95144.97
2022-08-10T14:19:31.677Z,95142.41
2022-08-10T14:22:00.110Z,95147.25
2022-08-10T14:24:29.439Z,95152.09
2022-08-10T14:27:05.715Z,95153.47
2022-08-10T14:29:49.705Z,95152.22
2022-08-10T14:32:19.116Z,95155.00
2022-08-10T14:36:18.327Z,95151.75
2022-08-10T14:37:38.586Z,95143.59
2022-08-10T14:40:11.671Z,95151.28
2022-08-10T14:42:52.714Z,95145.94
2022-08-10T14:45:28.011Z,95152.56
2022-08-10T14:48:01.335Z,95162.28
2022-08-10T14:50:32.799Z,95167.78
2022-08-10T14:53:17.844Z,95175.22
2022-08-10T14:55:58.529Z,95182.69
2022-08-10T14:58:35.584Z,95173.66
2022-08-10T15:01:07.920Z,95188.25
2022-08-10T15:04:00.978Z,95188.44
2022-08-10T15:06:30.653Z,95200.53
2022-08-10T15:09:19.769Z,95198.22
2022-08-10T15:12:13.349Z,95203.91
2022-08-10T15:14:49.707Z,95201.47
2022-08-10T15:17:26.797Z,95199.25
2022-08-10T15:20:02.712Z,95204.81
2022-08-10T15:22:40.495Z,95194.69
2022-08-10T15:25:17.853Z,95197.63
2022-08-10T15:27:53.715Z,95197.78
2022-08-10T15:30:30.560Z,95200.97
2022-08-10T15:33:57.626Z,95202.31
2022-08-10T15:36:34.819Z,95206.03
2022-08-10T15:40:23.863Z,95215.09
2022-08-10T15:42:19.329Z,95212.81
2022-08-10T15:44:50.030Z,95217.78
2022-08-10T15:47:44.830Z,95220.06
2022-08-10T15:50:25.355Z,95214.47
2022-08-10T15:53:07.267Z,95217.59
2022-08-10T15:55:45.988Z,95208.28
2022-08-10T15:58:40.319Z,95210.09
2022-08-10T16:02:13.691Z,95207.06
2022-08-10T16:04:35.478Z,95215.25
2022-08-10T16:07:11.505Z,95208.28
2022-08-10T16:10:24.728Z,95194.06
2022-08-10T16:12:59.532Z,95212.59
2022-08-10T16:15:29.232Z,95213.78
2022-08-10T16:18:02.028Z,95217.16
2022-08-10T16:20:55.270Z,95214.03
2022-08-10T16:23:32.237Z,95219.22
2022-08-10T16:26:14.726Z,95227.53
2022-08-10T16:28:50.738Z,95226.09
2022-08-10T16:31:24.217Z,95224.50
2022-08-10T16:33:55.181Z,95222.34
2022-08-10T16:36:37.977Z,95219.06
2022-08-10T16:39:06.157Z,95227.72
2022-08-10T16:42:03.813Z,95223.69
2022-08-10T16:44:28.732Z,95226.16
2022-08-10T16:46:57.557Z,95230.16
2022-08-10T16:49:26.150Z,95230.13
2022-08-10T16:51:53.735Z,95230.91
2022-08-10T16:54:27.392Z,95233.78
2022-08-10T16:57:01.114Z,95230.41
2022-08-10T16:59:31.258Z,95235.59
2022-08-10T17:02:00.925Z,95236.72
2022-08-10T17:04:30.201Z,95245.31
2022-08-10T17:06:59.751Z,95240.91
2022-08-10T17:09:29.969Z,95240.31
2022-08-10T17:11:59.069Z,95246.09
2022-08-10T17:14:29.033Z,95250.44
2022-08-10T17:17:19.040Z,95253.63
2022-08-10T17:19:46.148Z,95257.91
2022-08-10T17:22:23.771Z,95260.31
2022-08-10T17:24:56.709Z,95258.50
2022-08-10T17:28:04.009Z,95257.47
2022-08-10T17:30:33.814Z,95256.84
2022-08-10T17:33:09.820Z,95258.94
2022-08-10T17:35:39.022Z,95264.03
2022-08-10T17:38:10.893Z,95270.78
2022-08-10T17:40:48.941Z,95268.78
2022-08-10T17:44:00.952Z,95261.69
2022-08-10T17:46:11.745Z,95260.81
2022-08-10T17:48:39.936Z,95261.84
2022-08-10T17:51:15.599Z,95262.38
2022-08-10T17:53:51.891Z,95263.28
2022-08-10T17:56:21.109Z,95251.97
2022-08-10T17:59:01.321Z,95258.56
2022-08-10T18:01:41.842Z,95267.84
2022-08-10T18:04:22.158Z,95261.84
2022-08-10T18:06:54.656Z,95263.63
2022-08-10T18:09:30.767Z,95268.81
2022-08-10T18:12:02.033Z,95274.16
2022-08-10T18:14:32.580Z,95271.66
2022-08-10T18:17:10.353Z,95279.50
2022-08-10T18:19:40.265Z,95275.69
2022-08-10T18:22:11.370Z,95272.09
2022-08-10T18:24:38.880Z,95291.00
2022-08-10T18:27:07.874Z,95294.13
2022-08-10T18:29:40.339Z,95290.03
2022-08-10T18:32:08.146Z,95284.91
2022-08-10T18:34:39.266Z,95295.00
2022-08-10T18:37:10.110Z,95274.22
2022-08-10T18:39:39.838Z,95281.94
2022-08-10T18:42:13.911Z,95292.31
2022-08-10T18:44:50.303Z,95283.09
2022-08-10T18:47:25.704Z,95289.75
2022-08-10T18:50:13.995Z,95287.00
2022-08-10T18:52:44.172Z,95294.78
2022-08-10T18:55:35.417Z,95296.47
2022-08-10T18:58:47.821Z,95289.22
2022-08-10T19:01:14.822Z,95295.75
2022-08-10T19:04:12.059Z,95284.09
2022-08-10T19:07:04.985Z,95284.75
2022-08-10T19:09:46.313Z,95278.59
2022-08-10T19:12:48.331Z,95279.72
2022-08-10T19:15:32.916Z,95278.47
2022-08-10T19:18:39.193Z,95268.13
2022-08-10T19:21:08.917Z,95267.03
2022-08-10T19:23:52.775Z,95262.03
2022-08-10T19:27:18.110Z,95272.56
2022-08-10T19:30:12.153Z,95270.50
2022-08-10T19:32:58.807Z,95262.38
2022-08-10T19:36:03.479Z,95265.25
2022-08-10T19:38:53.754Z,95264.47
2022-08-10T19:41:32.716Z,95270.31
2022-08-10T19:44:52.778Z,95278.94
2022-08-10T19:47:31.795Z,95280.28
2022-08-10T19:50:09.619Z,95278.69
2022-08-10T19:52:42.602Z,95286.66
2022-08-10T19:55:25.586Z,95277.66
2022-08-10T19:58:03.256Z,95275.69
2022-08-10T20:00:56.004Z,95267.38
2022-08-10T20:03:32.052Z,95272.97
2022-08-10T20:06:19.243Z,95261.22
2022-08-10T20:09:06.763Z,95270.00
2022-08-10T20:11:58.560Z,95252.88
2022-08-10T20:14:34.181Z,95267.66
2022-08-10T20:17:09.757Z,95264.31
2022-08-10T20:19:53.966Z,95256.50
2022-08-10T20:22:50.621Z,95243.84
2022-08-10T20:25:25.006Z,95264.91
2022-08-10T20:28:12.070Z,95259.09
2022-08-10T20:30:46.827Z,95254.69
2022-08-10T20:33:32.374Z,95255.44
2022-08-10T20:36:08.355Z,95260.53
2022-08-10T20:38:59.764Z,95261.03
2022-08-10T20:41:43.815Z,95260.25
2022-08-10T20:44:50.722Z,95270.34
2022-08-10T20:47:34.019Z,95274.09
2022-08-10T20:50:27.279Z,95268.94
2022-08-10T20:52:55.562Z,95269.47
2022-08-10T20:55:26.307Z,95271.16
2022-08-10T20:58:30.022Z,95258.19
2022-08-10T21:01:03.846Z,95269.13
2022-08-10T21:03:43.628Z,95262.38
2022-08-10T21:06:42.029Z,95267.97
2022-08-10T21:09:15.197Z,95261.91
2022-08-10T21:12:07.874Z,95268.97
2022-08-10T21:14:34.707Z,95262.06
2022-08-10T21:17:34.607Z,95267.88
2022-08-10T21:20:28.628Z,95262.41
2022-08-10T21:22:58.801Z,95258.06
2022-08-10T21:26:08.649Z,95253.75
2022-08-10T21:29:03.864Z,95249.03
2022-08-10T21:31:30.533Z,95250.06
2022-08-10T21:34:06.188Z,95245.91
2022-08-10T21:36:48.076Z,95242.63
2022-08-10T21:39:42.006Z,95248.94
2022-08-10T21:42:57.754Z,95244.44
2022-08-10T21:46:01.774Z,95255.06
2022-08-10T21:49:06.900Z,95260.16
2022-08-10T21:52:19.184Z,95252.16
2022-08-10T21:55:57.318Z,95248.91
2022-08-10T21:58:53.258Z,95253.97
2022-08-10T22:02:05.762Z,95250.06
2022-08-10T22:04:52.884Z,95220.69
2022-08-10T22:07:40.093Z,95244.38
2022-08-10T22:10:28.553Z,95246.44
2022-08-10T22:13:19.601Z,95235.34
2022-08-10T22:16:11.981Z,95233.44
2022-08-10T22:19:03.497Z,95229.78
2022-08-10T22:21:56.115Z,95231.53
2022-08-10T22:24:56.746Z,95220.34
2022-08-10T22:27:56.281Z,95230.28
2022-08-10T22:31:22.933Z,95230.19
2022-08-10T22:34:22.404Z,95233.50
2022-08-10T22:37:26.618Z,95232.31
2022-08-10T22:40:39.090Z,95226.47
2022-08-10T22:43:35.911Z,95225.91
2022-08-10T22:46:27.956Z,95226.31
2022-08-10T22:49:00.849Z,95224.97
2022-08-10T22:51:51.041Z,95216.38
2022-08-10T22:54:46.354Z,95221.84
2022-08-10T22:57:33.867Z,95221.69
2022-08-10T23:00:18.625Z,95215.78
2022-08-10T23:02:56.415Z,95211.03
2022-08-10T23:05:39.553Z,95209.34
2022-08-10T23:08:29.853Z,95204.16
2022-08-10T23:11:07.618Z,95208.47
2022-08-10T23:13:44.348Z,95216.72
2022-08-10T23:16:52.620Z,95204.59
2022-08-10T23:19:24.675Z,95212.72
2022-08-10T23:22:12.974Z,95212.38
2022-08-10T23:24:51.758Z,95209.09
2022-08-10T23:27:37.462Z,95214.59
2022-08-10T23:30:17.228Z,95217.16
2022-08-10T23:32:59.591Z,95220.56
2022-08-10T23:36:31.882Z,95214.75
2022-08-10T23:38:21.254Z,95218.09
2022-08-10T23:40:51.155Z,95224.00
2022-08-10T23:43:22.064Z,95206.34
2022-08-10T23:45:56.643Z,95219.44
2022-08-10T23:48:26.449Z,95215.47
2022-08-10T23:51:00.461Z,95211.84
2022-08-10T23:53:33.509Z,95217.66
2022-08-10T23:56:08.216Z,95225.00
2022-08-10T23:58:44.418Z,95212.50
